Time;durP1;ratioP1;P1;durP2;ratioP2;P2;SDS_P1;SDS_P2;PMS_P1;PMS_P2;Temp;Humidity;BMP_temperature;BMP_pressure;BME280_temperature;BME280_humidity;BME280_pressure;Samples;Min_cycle;Max_cycle;Signal;HPM_P1;HPM_P2
2021/12/10 00:01:28;;;;;;;6.53;3.15;;;2.50;99.90;;;;;;5015172;28;20029;-65
2021/12/10 00:03:57;;;;;;;5.30;2.38;;;2.50;99.90;;;;;;5016619;28;20025;-65
2021/12/10 00:06:41;;;;;;;17.35;3.55;;;2.50;99.90;;;;;;5020214;28;20038;-65
2021/12/10 00:09:18;;;;;;;3.95;2.13;;;2.50;99.90;;;;;;5013373;28;20052;-65
2021/12/10 00:12:06;;;;;;;5.30;2.03;;;2.60;99.90;;;;;;5018177;28;20033;-65
2021/12/10 00:14:34;;;;;;;1.98;1.70;;;2.60;99.90;;;;;;5009755;28;20029;-65
2021/12/10 00:17:02;;;;;;;5.70;2.88;;;2.60;99.90;;;;;;5016057;28;20034;-65
2021/12/10 00:20:03;;;;;;;6.72;2.42;;;2.60;99.90;;;;;;5019696;28;20030;-65
2021/12/10 00:22:40;;;;;;;8.35;3.50;;;2.50;99.90;;;;;;5018467;28;20041;-65
2021/12/10 00:25:12;;;;;;;3.60;1.85;;;2.50;99.90;;;;;;5015835;28;20022;-65
2021/12/10 00:27:38;;;;;;;4.82;1.73;;;2.50;99.90;;;;;;5017153;28;20022;-65
2021/12/10 00:30:20;;;;;;;3.53;2.03;;;2.60;99.90;;;;;;5016919;28;20040;-65
2021/12/10 00:32:57;;;;;;;8.25;2.85;;;2.60;99.90;;;;;;5020575;28;20377;-65
2021/12/10 00:35:26;;;;;;;3.30;2.08;;;2.60;99.90;;;;;;5019925;28;20022;-65
2021/12/10 00:37:51;;;;;;;8.80;3.65;;;2.60;99.90;;;;;;5014750;28;20072;-65
2021/12/10 00:40:19;;;;;;;4.65;2.45;;;2.60;99.90;;;;;;5019494;28;20370;-65
2021/12/10 00:42:45;;;;;;;2.90;1.75;;;2.50;99.90;;;;;;5018238;28;20025;-65
2021/12/10 00:45:13;;;;;;;4.13;2.20;;;2.60;99.90;;;;;;5022264;28;20044;-66
2021/12/10 00:47:40;;;;;;;8.93;2.50;;;2.60;99.90;;;;;;5018203;28;20461;-65
2021/12/10 00:50:09;;;;;;;3.30;2.03;;;2.60;99.90;;;;;;5019420;28;20417;-65
2021/12/10 00:52:34;;;;;;;3.08;1.80;;;2.70;99.90;;;;;;5025348;28;20060;-65
2021/12/10 00:55:00;;;;;;;6.07;2.40;;;2.80;99.90;;;;;;5023581;28;20420;-65
2021/12/10 00:57:26;;;;;;;4.97;2.47;;;2.80;99.90;;;;;;5019281;28;20061;-65
2021/12/10 00:59:52;;;;;;;5.22;1.60;;;2.70;99.90;;;;;;5016205;28;20029;-65
2021/12/10 01:02:21;;;;;;;7.97;3.42;;;2.80;99.90;;;;;;5026762;28;20029;-65
2021/12/10 01:04:50;;;;;;;3.93;1.37;;;2.80;99.90;;;;;;5019810;28;20028;-65
2021/12/10 01:07:19;;;;;;;4.57;1.98;;;2.80;99.90;;;;;;5019619;28;20363;-65
2021/12/10 01:09:49;;;;;;;4.25;1.95;;;2.80;99.90;;;;;;5024612;28;20022;-65
2021/12/10 01:12:21;;;;;;;6.57;2.67;;;2.80;99.90;;;;;;5017540;28;20315;-66
2021/12/10 01:15:06;;;;;;;4.70;2.28;;;2.80;99.90;;;;;;5026753;28;20112;-65
2021/12/10 01:26:09;;;;;;;7.00;3.55;;;3.00;99.90;;;;;;5031007;28;20087;-65
2021/12/10 01:28:40;;;;;;;2.80;1.83;;;3.00;99.90;;;;;;5027181;28;20044;-65
2021/12/10 01:31:07;;;;;;;5.25;2.42;;;3.10;99.90;;;;;;5030923;28;20493;-65
2021/12/10 01:33:33;;;;;;;5.85;2.33;;;3.10;99.90;;;;;;5026626;28;20022;-65
2021/12/10 01:36:06;;;;;;;6.05;2.55;;;3.10;99.90;;;;;;5028845;28;20051;-65
2021/12/10 01:38:31;;;;;;;19.27;2.17;;;3.10;99.90;;;;;;5017268;28;20076;-65
2021/12/10 01:41:00;;;;;;;2.95;1.60;;;3.20;99.90;;;;;;5025868;28;20021;-65
2021/12/10 01:43:26;;;;;;;2.75;1.83;;;3.20;99.90;;;;;;5020813;28;20498;-65
2021/12/10 01:45:55;;;;;;;2.20;1.80;;;3.30;99.90;;;;;;5024277;28;20052;-65
2021/12/10 01:48:31;;;;;;;4.72;1.88;;;3.30;99.90;;;;;;5025242;28;20021;-65
2021/12/10 01:50:59;;;;;;;5.47;2.22;;;3.30;99.90;;;;;;5028670;28;20099;-66
2021/12/10 01:53:29;;;;;;;6.28;2.33;;;3.40;99.90;;;;;;5028733;28;20492;-65
2021/12/10 01:55:59;;;;;;;3.95;1.38;;;3.40;99.90;;;;;;5028676;28;20436;-65
2021/12/10 01:58:27;;;;;;;7.03;2.25;;;3.40;99.90;;;;;;5023719;28;20129;-65
2021/12/10 02:00:57;;;;;;;4.40;2.15;;;3.40;99.90;;;;;;5027151;28;20068;-65
2021/12/10 02:03:23;;;;;;;;;;;3.30;99.90;;;;;;5025857;28;20018;-65
2021/12/10 02:05:48;;;;;;;4.55;2.28;;;3.30;99.90;;;;;;5027786;28;19970;-65
2021/12/10 02:08:14;;;;;;;4.53;2.05;;;3.30;99.90;;;;;;5028013;28;20117;-65
2021/12/10 02:10:40;;;;;;;9.68;2.95;;;3.30;99.90;;;;;;5028348;28;20037;-65
2021/12/10 02:13:06;;;;;;;3.58;1.58;;;3.20;99.90;;;;;;5027061;28;20072;-65
2021/12/10 02:15:32;;;;;;;4.75;2.10;;;3.20;99.90;;;;;;5025406;28;20053;-65
2021/12/10 02:18:00;;;;;;;4.13;2.08;;;3.20;99.90;;;;;;5028185;28;20036;-65
2021/12/10 02:21:01;;;;;;;6.85;2.50;;;3.20;99.90;;;;;;5023727;28;20083;-65
2021/12/10 02:23:27;;;;;;;;;;;3.10;99.90;;;;;;5019393;28;20041;-65
2021/12/10 02:25:55;;;;;;;2.83;1.58;;;3.20;99.90;;;;;;5027208;28;20420;-65
2021/12/10 02:28:21;;;;;;;7.47;2.70;;;3.20;99.90;;;;;;5024879;28;20025;-65
2021/12/10 02:30:48;;;;;;;4.88;2.25;;;3.20;99.90;;;;;;5028842;28;20021;-65
2021/12/10 02:33:15;;;;;;;3.28;1.85;;;3.20;99.90;;;;;;5017344;28;20026;-66
2021/12/10 02:35:42;;;;;;;6.20;2.67;;;3.10;99.90;;;;;;5028148;28;20359;-65
2021/12/10 02:38:08;;;;;;;5.03;2.30;;;3.10;99.90;;;;;;5024159;28;20026;-65
2021/12/10 02:40:36;;;;;;;5.82;2.40;;;3.10;99.90;;;;;;5026419;28;20024;-65
2021/12/10 02:43:06;;;;;;;3.70;1.67;;;3.10;99.90;;;;;;5021868;28;20501;-65
2021/12/10 02:45:32;;;;;;;5.22;2.13;;;3.10;99.90;;;;;;5024082;28;20479;-65
2021/12/10 02:47:57;;;;;;;1.85;1.20;;;3.20;99.90;;;;;;5029092;28;20057;-65
2021/12/10 02:50:26;;;;;;;4.53;1.85;;;3.30;99.90;;;;;;5022902;28;20104;-65
2021/12/10 02:52:52;;;;;;;4.95;2.08;;;3.30;99.90;;;;;;5029053;28;20021;-65
2021/12/10 02:55:20;;;;;;;2.85;1.40;;;3.30;99.90;;;;;;5027077;28;20536;-65
2021/12/10 02:57:51;;;;;;;4.55;1.92;;;3.40;99.90;;;;;;5020922;28;20025;-65
2021/12/10 03:00:22;;;;;;;5.47;2.92;;;3.40;99.90;;;;;;5021733;28;20034;-65
2021/12/10 03:02:48;;;;;;;7.45;2.10;;;3.50;99.90;;;;;;5019754;28;20394;-65
2021/12/10 03:05:13;;;;;;;3.78;1.67;;;3.70;99.90;;;;;;5027440;28;20021;-65
2021/12/10 03:07:40;;;;;;;2.22;1.60;;;3.60;99.90;;;;;;5015375;28;20038;-65
2021/12/10 03:10:10;;;;;;;2.65;1.27;;;3.70;99.90;;;;;;5024146;28;20022;-65
2021/12/10 03:12:36;;;;;;;3.00;1.35;;;3.70;99.90;;;;;;5021724;28;20397;-66
2021/12/10 03:15:03;;;;;;;1.63;1.23;;;3.80;99.90;;;;;;5025284;28;20025;-65
2021/12/10 03:17:31;;;;;;;2.45;1.27;;;3.80;99.90;;;;;;5016246;28;20041;-65
2021/12/10 03:19:58;;;;;;;3.35;1.70;;;3.80;99.90;;;;;;5020409;28;20064;-65
2021/12/10 03:22:25;;;;;;;3.45;1.80;;;3.80;99.90;;;;;;5025742;28;20429;-66
2021/12/10 03:24:52;;;;;;;3.63;1.60;;;3.80;99.90;;;;;;5025994;28;20374;-65
2021/12/10 03:27:19;;;;;;;6.50;2.05;;;3.80;99.90;;;;;;5025853;28;20040;-65
2021/12/10 03:29:45;;;;;;;7.88;2.13;;;3.90;99.90;;;;;;5027404;28;20017;-65
2021/12/10 03:32:20;;;;;;;6.63;1.75;;;3.90;99.90;;;;;;5024687;28;20033;-65
2021/12/10 03:34:46;;;;;;;2.92;1.58;;;3.90;99.90;;;;;;5026642;28;20025;-65
2021/12/10 03:37:17;;;;;;;3.72;1.60;;;3.90;99.90;;;;;;5023468;28;20064;-65
2021/12/10 03:39:42;;;;;;;4.20;1.30;;;3.90;99.90;;;;;;5025954;28;20400;-66
2021/12/10 03:42:08;;;;;;;3.65;1.45;;;3.80;99.90;;;;;;5019789;28;20109;-66
2021/12/10 03:44:35;;;;;;;22.10;1.73;;;3.70;99.90;;;;;;5026555;28;20398;-66
2021/12/10 03:47:04;;;;;;;2.05;1.08;;;3.60;99.90;;;;;;5028062;28;20026;-65
2021/12/10 03:49:30;;;;;;;2.47;1.35;;;3.50;99.90;;;;;;5016640;28;20310;-65
2021/12/10 03:51:56;;;;;;;1.58;1.10;;;3.40;99.90;;;;;;5022182;28;20485;-66
2021/12/10 03:54:23;;;;;;;3.90;1.60;;;3.40;99.90;;;;;;5027770;28;20053;-66
2021/12/10 03:56:49;;;;;;;1.77;1.33;;;3.40;99.90;;;;;;5030450;28;20473;-66
2021/12/10 03:59:17;;;;;;;4.68;1.73;;;3.20;99.90;;;;;;5031437;28;20080;-66
2021/12/10 04:01:45;;;;;;;2.83;1.55;;;3.20;99.90;;;;;;5024798;28;20771;-66
2021/12/10 04:04:19;;;;;;;1.48;1.02;;;3.10;99.90;;;;;;5028203;28;20041;-66
2021/12/10 04:06:45;;;;;;;3.40;1.20;;;3.00;99.90;;;;;;5028596;28;20525;-66
2021/12/10 04:09:12;;;;;;;6.60;1.77;;;3.00;99.90;;;;;;5031429;28;20078;-66
2021/12/10 04:11:38;;;;;;;1.02;0.93;;;3.10;99.90;;;;;;5030089;28;20234;-66
2021/12/10 04:14:05;;;;;;;2.58;1.50;;;3.10;99.90;;;;;;5030392;28;20029;-66
2021/12/10 04:16:32;;;;;;;1.95;1.15;;;3.10;99.90;;;;;;5026617;28;20029;-66
2021/12/10 04:19:00;;;;;;;1.95;0.82;;;3.00;99.90;;;;;;5031060;28;20029;-66
2021/12/10 04:21:27;;;;;;;5.25;1.88;;;3.00;99.90;;;;;;5026835;28;20273;-66
2021/12/10 04:23:53;;;;;;;1.40;1.00;;;3.00;99.90;;;;;;5027784;28;20075;-65
2021/12/10 04:26:20;;;;;;;2.13;1.15;;;2.90;99.90;;;;;;5025987;28;20026;-66
2021/12/10 04:28:46;;;;;;;2.22;1.40;;;2.90;99.90;;;;;;5030566;28;20096;-66
2021/12/10 04:31:12;;;;;;;1.50;1.10;;;2.90;99.90;;;;;;5027939;28;20449;-66
2021/12/10 04:33:38;;;;;;;3.20;1.40;;;2.90;99.90;;;;;;5028643;28;20025;-65
2021/12/10 04:36:04;;;;;;;4.35;2.80;;;2.80;99.90;;;;;;5024334;28;21062;-66
2021/12/10 04:38:33;;;;;;;2.65;2.13;;;2.70;99.90;;;;;;5021047;28;20025;-65
2021/12/10 04:41:02;;;;;;;1.42;1.00;;;2.70;99.90;;;;;;5026861;28;20500;-65
2021/12/10 04:43:30;;;;;;;2.15;0.98;;;2.70;99.90;;;;;;5019956;28;20014;-65
2021/12/10 04:45:57;;;;;;;1.90;1.00;;;2.60;99.90;;;;;;5025361;28;20021;-65
2021/12/10 04:48:25;;;;;;;1.00;0.80;;;2.60;99.90;;;;;;5027674;28;20022;-65
2021/12/10 04:50:51;;;;;;;1.30;1.17;;;2.50;99.90;;;;;;5023939;28;20045;-66
2021/12/10 04:53:17;;;;;;;2.35;1.35;;;2.60;99.90;;;;;;5026167;28;20029;-67
2021/12/10 04:55:44;;;;;;;1.80;1.23;;;2.60;99.90;;;;;;5029211;28;20128;-66
2021/12/10 04:58:10;;;;;;;2.20;1.17;;;2.70;99.90;;;;;;5025643;28;20041;-66
2021/12/10 05:00:46;;;;;;;0.82;0.80;;;2.70;99.90;;;;;;5027658;28;20558;-65
2021/12/10 05:03:12;;;;;;;0.77;0.77;;;2.70;99.90;;;;;;5026680;28;20029;-65
2021/12/10 05:05:40;;;;;;;0.88;0.88;;;3.00;99.90;;;;;;5025378;28;20022;-65
2021/12/10 05:08:07;;;;;;;2.53;1.63;;;3.00;99.90;;;;;;5023536;28;20147;-66
2021/12/10 05:10:33;;;;;;;1.77;1.05;;;3.00;99.90;;;;;;5028609;28;20477;-65
2021/12/10 05:12:59;;;;;;;0.70;0.70;;;3.00;99.90;;;;;;5025336;28;20067;-65
2021/12/10 05:15:30;;;;;;;1.00;0.90;;;2.90;99.90;;;;;;5020349;28;20037;-65
2021/12/10 05:17:56;;;;;;;3.00;1.08;;;2.90;99.90;;;;;;5022070;28;20037;-65
2021/12/10 05:20:30;;;;;;;1.42;0.90;;;3.00;99.90;;;;;;5021855;28;20058;-65
2021/12/10 05:22:56;;;;;;;0.85;0.80;;;3.20;99.90;;;;;;5020697;28;20061;-65
2021/12/10 05:25:25;;;;;;;1.75;1.10;;;3.10;99.90;;;;;;5020422;28;20052;-66
2021/12/10 05:27:51;;;;;;;2.10;1.00;;;3.10;99.90;;;;;;5028628;28;20022;-65
2021/12/10 05:30:21;;;;;;;4.07;1.55;;;3.20;99.90;;;;;;5026333;28;20029;-65
2021/12/10 05:32:47;;;;;;;2.75;1.30;;;3.10;99.90;;;;;;5022554;28;20029;-65
2021/12/10 05:35:12;;;;;;;7.32;1.23;;;3.10;99.90;;;;;;5025423;28;21137;-65
2021/12/10 05:37:39;;;;;;;0.75;0.75;;;3.10;99.90;;;;;;5026205;28;20025;-65
2021/12/10 05:40:06;;;;;;;1.73;1.10;;;3.10;99.90;;;;;;5022070;28;20425;-65
2021/12/10 05:42:31;;;;;;;0.70;0.70;;;3.00;99.90;;;;;;5024047;28;20009;-67
2021/12/10 05:44:57;;;;;;;4.22;1.00;;;2.90;99.90;;;;;;5027661;28;20039;-66
2021/12/10 05:47:23;;;;;;;1.00;0.93;;;2.90;99.90;;;;;;5025105;28;20418;-66
2021/12/10 05:49:48;;;;;;;0.80;0.80;;;2.90;99.90;;;;;;5028182;28;20322;-66
2021/12/10 05:52:15;;;;;;;1.42;0.90;;;2.90;99.90;;;;;;5027859;28;20533;-66
2021/12/10 05:54:42;;;;;;;0.93;0.85;;;2.90;99.90;;;;;;5023674;28;20117;-66
2021/12/10 05:57:08;;;;;;;0.80;0.80;;;2.90;99.90;;;;;;5024951;28;20456;-66
2021/12/10 05:59:34;;;;;;;2.17;1.00;;;3.00;99.90;;;;;;5026322;28;20025;-66
2021/12/10 06:01:59;;;;;;;2.70;1.60;;;2.90;99.90;;;;;;5025594;28;20112;-66
2021/12/10 06:04:27;;;;;;;1.70;1.30;;;2.80;99.90;;;;;;5023834;28;20026;-66
2021/12/10 06:06:54;;;;;;;3.20;1.30;;;2.80;99.90;;;;;;5026395;28;20084;-66
2021/12/10 06:09:21;;;;;;;1.60;0.88;;;2.80;99.90;;;;;;5024957;28;20117;-66
2021/12/10 06:11:46;;;;;;;1.38;1.00;;;2.80;99.90;;;;;;5026744;28;20092;-66
2021/12/10 06:14:12;;;;;;;2.28;1.48;;;2.70;99.90;;;;;;5024401;28;20152;-66
2021/12/10 06:16:38;;;;;;;3.45;1.40;;;2.70;99.90;;;;;;5025089;28;20022;-66
2021/12/10 06:19:05;;;;;;;2.67;1.50;;;2.70;99.90;;;;;;5022624;28;20026;-66
2021/12/10 06:21:33;;;;;;;2.05;1.05;;;2.60;99.90;;;;;;5024278;28;20049;-66
2021/12/10 06:23:59;;;;;;;2.63;1.20;;;2.60;99.90;;;;;;5025594;28;20075;-66
2021/12/10 06:26:25;;;;;;;3.00;1.67;;;2.60;99.90;;;;;;5026945;28;20059;-66
2021/12/10 06:28:51;;;;;;;1.70;1.25;;;2.60;99.90;;;;;;5024264;28;20025;-66
2021/12/10 06:31:20;;;;;;;11.52;1.42;;;2.60;99.90;;;;;;5024463;28;20040;-66
2021/12/10 06:33:46;;;;;;;0.98;0.90;;;2.70;99.90;;;;;;5021757;28;20075;-66
2021/12/10 06:36:13;;;;;;;7.88;1.45;;;2.70;99.90;;;;;;5024074;28;20029;-66
2021/12/10 06:38:38;;;;;;;5.13;1.50;;;2.70;99.90;;;;;;5028302;28;20048;-66
2021/12/10 06:41:04;;;;;;;2.00;1.40;;;2.60;99.90;;;;;;5024236;28;20029;-66
2021/12/10 06:43:30;;;;;;;5.00;1.70;;;2.60;99.90;;;;;;5025101;28;20405;-66
2021/12/10 06:45:56;;;;;;;2.75;1.33;;;2.60;99.90;;;;;;5027212;28;20025;-66
2021/12/10 06:48:26;;;;;;;1.15;0.90;;;2.60;99.90;;;;;;5028512;28;20437;-66
2021/12/10 06:50:59;;;;;;;2.25;1.05;;;2.60;99.90;;;;;;5022856;28;20073;-66
2021/12/10 06:53:27;;;;;;;1.40;1.00;;;2.60;99.90;;;;;;5025753;28;20036;-65
2021/12/10 06:55:53;;;;;;;0.95;0.88;;;2.60;99.90;;;;;;5028169;28;20025;-65
2021/12/10 06:58:19;;;;;;;5.35;2.38;;;2.70;99.90;;;;;;5028923;28;20022;-66
2021/12/10 07:00:56;;;;;;;2.38;1.38;;;2.70;99.90;;;;;;5026047;28;20025;-66
2021/12/10 07:03:25;;;;;;;1.27;0.82;;;2.70;99.90;;;;;;5020080;28;20025;-66
2021/12/10 07:05:52;;;;;;;2.60;1.10;;;2.60;99.90;;;;;;5022342;28;20522;-65
2021/12/10 07:08:18;;;;;;;1.48;0.88;;;2.60;99.90;;;;;;5020659;28;20017;-65
2021/12/10 07:10:45;;;;;;;5.18;1.35;;;2.60;99.90;;;;;;5017382;28;20103;-65
2021/12/10 07:13:11;;;;;;;2.35;1.30;;;2.70;99.90;;;;;;5018746;28;20523;-65
2021/12/10 07:15:40;;;;;;;2.92;1.27;;;2.70;99.90;;;;;;5019273;28;20021;-65
2021/12/10 07:18:06;;;;;;;4.53;1.33;;;2.60;99.90;;;;;;5024990;28;20037;-65
2021/12/10 07:20:33;;;;;;;2.65;1.50;;;2.60;99.90;;;;;;5022609;28;20493;-65
2021/12/10 07:22:58;;;;;;;8.02;1.70;;;2.60;99.90;;;;;;5025936;28;20029;-65
2021/12/10 07:25:24;;;;;;;1.95;1.00;;;2.50;99.90;;;;;;5022158;28;20017;-65
2021/12/10 07:27:51;;;;;;;2.00;1.05;;;2.60;99.90;;;;;;5023537;28;20375;-65
2021/12/10 07:30:20;;;;;;;6.93;1.85;;;2.50;99.90;;;;;;5017231;28;20084;-65
2021/12/10 07:32:46;;;;;;;4.18;1.60;;;2.50;99.90;;;;;;5025260;28;20049;-65
2021/12/10 07:35:15;;;;;;;1.95;1.13;;;2.40;99.90;;;;;;5025693;28;20052;-65
2021/12/10 07:37:41;;;;;;;2.55;1.38;;;2.50;99.90;;;;;;5027892;28;20018;-66
2021/12/10 07:40:11;;;;;;;2.33;1.05;;;2.50;99.90;;;;;;5026579;28;20026;-66
2021/12/10 07:42:37;;;;;;;3.50;1.08;;;2.50;99.90;;;;;;5026431;28;20032;-66
2021/12/10 07:45:05;;;;;;;1.35;1.05;;;2.50;99.90;;;;;;5023645;28;20033;-65
2021/12/10 07:47:34;;;;;;;6.63;1.35;;;2.60;99.90;;;;;;5026985;28;20029;-66
2021/12/10 07:50:03;;;;;;;4.10;1.50;;;2.60;99.90;;;;;;5025422;28;20493;-65
2021/12/10 07:52:33;;;;;;;3.10;1.23;;;2.60;99.90;;;;;;5025429;28;20124;-66
2021/12/10 07:55:00;;;;;;;2.08;1.05;;;2.60;99.90;;;;;;5024799;28;20079;-66
2021/12/10 07:57:27;;;;;;;1.20;0.90;;;2.60;99.90;;;;;;5023088;28;20034;-66
2021/12/10 07:59:53;;;;;;;2.58;1.30;;;2.60;99.90;;;;;;5025049;28;20021;-66
2021/12/10 08:02:19;;;;;;;4.43;1.42;;;2.50;99.90;;;;;;5026336;28;20017;-66
2021/12/10 08:04:45;;;;;;;5.60;2.90;;;2.50;99.90;;;;;;5022846;28;20024;-65
2021/12/10 08:07:13;;;;;;;2.30;1.23;;;2.60;99.90;;;;;;5022211;28;20490;-66
2021/12/10 08:09:39;;;;;;;2.42;1.33;;;2.60;99.90;;;;;;5017799;28;20041;-66
2021/12/10 08:12:05;;;;;;;2.22;1.42;;;2.70;99.90;;;;;;5025153;28;20398;-66
2021/12/10 08:14:30;;;;;;;5.90;2.15;;;2.70;99.90;;;;;;5021823;28;20022;-66
2021/12/10 08:16:56;;;;;;;0.80;0.80;;;2.70;99.90;;;;;;5019980;28;20045;-65
2021/12/10 08:19:22;;;;;;;1.60;0.93;;;2.70;99.90;;;;;;5023850;28;20147;-65
2021/12/10 08:21:47;;;;;;;2.78;1.42;;;2.80;99.90;;;;;;5025379;28;20490;-65
2021/12/10 08:24:13;;;;;;;2.88;1.40;;;2.80;99.90;;;;;;5026712;28;20033;-65
2021/12/10 08:26:39;;;;;;;2.35;1.30;;;2.80;99.90;;;;;;5022856;28;20033;-65
2021/12/10 08:29:06;;;;;;;1.63;1.27;;;2.80;99.90;;;;;;5026271;28;20470;-65
2021/12/10 08:31:32;;;;;;;2.15;1.55;;;2.80;99.90;;;;;;5021835;28;20026;-66
2021/12/10 08:33:58;;;;;;;0.93;0.93;;;2.90;99.90;;;;;;5025122;28;20112;-66
2021/12/10 08:36:25;;;;;;;1.05;0.93;;;3.00;99.90;;;;;;5023666;28;20592;-66
2021/12/10 08:38:52;;;;;;;8.07;1.48;;;3.00;99.90;;;;;;5024707;28;20386;-65
2021/12/10 08:41:22;;;;;;;9.20;1.67;;;3.10;99.90;;;;;;5024456;28;20552;-66
2021/12/10 08:43:48;;;;;;;2.38;1.20;;;3.10;99.90;;;;;;5028459;28;20041;-66
2021/12/10 08:46:15;;;;;;;1.38;1.00;;;3.20;99.90;;;;;;5024921;28;20030;-65
2021/12/10 08:48:41;;;;;;;2.67;1.00;;;3.30;99.90;;;;;;5020362;28;20620;-66
2021/12/10 08:51:21;;;;;;;1.77;1.15;;;3.40;99.90;;;;;;5026662;28;20065;-66
2021/12/10 08:53:47;;;;;;;10.93;0.95;;;3.60;99.90;;;;;;5022034;28;20520;-66
2021/12/10 08:56:13;;;;;;;0.95;0.88;;;4.00;99.90;;;;;;5023810;28;20135;-66
2021/12/10 08:58:39;;;;;;;2.55;1.67;;;4.40;99.90;;;;;;5026410;28;20033;-66
2021/12/10 09:01:11;;;;;;;1.95;1.15;;;4.70;99.90;;;;;;5026442;28;20029;-66
2021/12/10 09:03:38;;;;;;;1.02;0.90;;;5.10;99.90;;;;;;5025247;28;20010;-66
2021/12/10 09:06:06;;;;;;;0.65;0.65;;;5.20;99.90;;;;;;5026299;28;20057;-66
2021/12/10 09:08:32;;;;;;;10.48;1.75;;;5.30;99.90;;;;;;5024779;28;20429;-66
2021/12/10 09:10:58;;;;;;;2.03;1.00;;;5.30;99.90;;;;;;5023466;28;20107;-66
2021/12/10 09:13:25;;;;;;;9.43;3.35;;;5.60;99.90;;;;;;5026671;28;20032;-66
2021/12/10 09:16:00;;;;;;;4.50;1.30;;;5.60;99.90;;;;;;5029308;28;20061;-67
2021/12/10 09:18:25;;;;;;;1.75;0.90;;;5.90;99.90;;;;;;5026983;28;20049;-66
2021/12/10 09:20:54;;;;;;;3.97;1.20;;;6.10;99.90;;;;;;5025148;28;20034;-66
2021/12/10 09:23:23;;;;;;;1.20;0.88;;;6.30;99.90;;;;;;5022449;28;20034;-66
2021/12/10 09:25:56;;;;;;;2.50;1.10;;;6.20;99.90;;;;;;5025515;28;20033;-66
2021/12/10 09:28:24;;;;;;;0.70;0.70;;;5.90;99.90;;;;;;5026764;28;20025;-66
2021/12/10 09:30:52;;;;;;;3.83;1.60;;;5.40;99.90;;;;;;5019476;28;20022;-66
2021/12/10 09:33:18;;;;;;;2.50;1.35;;;5.40;99.90;;;;;;5022850;28;20030;-66
2021/12/10 09:35:45;;;;;;;2.50;1.10;;;5.70;99.90;;;;;;5027306;28;20045;-66
2021/12/10 09:38:11;;;;;;;2.35;1.00;;;6.10;99.90;;;;;;5026167;28;20057;-66
2021/12/10 09:40:41;;;;;;;1.95;0.77;;;6.40;99.90;;;;;;5027812;28;20594;-66
2021/12/10 09:43:09;;;;;;;5.65;1.50;;;6.60;99.90;;;;;;5025409;28;20112;-66
2021/12/10 09:45:38;;;;;;;1.50;0.88;;;7.00;99.90;;;;;;5029662;28;20026;-66
2021/12/10 09:48:05;;;;;;;3.35;1.45;;;6.70;99.90;;;;;;5027817;28;20427;-66
2021/12/10 09:50:37;;;;;;;6.22;1.50;;;7.20;99.90;;;;;;5023192;28;20065;-66
2021/12/10 09:53:03;;;;;;;0.73;0.70;;;7.10;99.90;;;;;;5025317;28;20029;-66
2021/12/10 09:55:29;;;;;;;1.70;1.10;;;7.30;99.90;;;;;;5022035;28;20106;-66
2021/12/10 09:57:56;;;;;;;1.33;0.95;;;7.60;99.90;;;;;;5026071;28;20048;-66
2021/12/10 10:00:24;;;;;;;2.30;0.95;;;7.50;99.90;;;;;;5023596;28;20036;-66
2021/12/10 10:02:50;;;;;;;4.53;1.20;;;7.30;99.90;;;;;;5013243;28;20072;-66
2021/12/10 10:05:17;;;;;;;0.65;0.63;;;6.90;99.90;;;;;;5028630;28;20017;-67
2021/12/10 10:07:44;;;;;;;2.03;1.05;;;6.80;99.90;;;;;;5024827;28;20038;-66
2021/12/10 10:10:16;;;;;;;0.70;0.70;;;6.60;99.90;;;;;;5026563;28;20506;-66
2021/12/10 10:12:44;;;;;;;1.92;0.90;;;6.80;99.90;;;;;;5027429;28;20029;-66
2021/12/10 10:15:15;;;;;;;1.90;1.00;;;7.00;99.90;;;;;;5028590;28;20030;-66
2021/12/10 10:17:41;;;;;;;0.63;0.63;;;7.20;99.90;;;;;;5024257;28;20021;-66
2021/12/10 10:20:10;;;;;;;5.63;1.50;;;7.20;99.90;;;;;;5028442;28;20493;-66
2021/12/10 10:22:37;;;;;;;2.92;0.95;;;6.90;99.90;;;;;;5022876;28;20037;-66
2021/12/10 10:25:07;;;;;;;1.15;0.80;;;7.10;99.90;;;;;;5016653;28;20034;-66
2021/12/10 10:27:36;;;;;;;1.40;0.80;;;7.10;99.90;;;;;;5021721;28;20075;-66
2021/12/10 10:30:17;;;;;;;3.92;1.02;;;7.20;99.90;;;;;;5023258;28;20025;-66
2021/12/10 10:32:45;;;;;;;0.68;0.68;;;7.40;99.90;;;;;;5022121;28;20680;-66
2021/12/10 10:35:17;;;;;;;2.47;1.35;;;7.20;99.90;;;;;;5023884;28;20025;-66
2021/12/10 10:37:45;;;;;;;1.77;1.00;;;7.20;99.90;;;;;;5028753;28;20030;-66
2021/12/10 10:40:15;;;;;;;3.75;1.17;;;7.30;99.90;;;;;;5028442;28;20120;-66
2021/12/10 10:42:42;;;;;;;1.75;0.90;;;7.50;99.90;;;;;;5018188;28;20030;-66
2021/12/10 10:45:12;;;;;;;1.30;0.70;;;7.30;99.90;;;;;;5027122;28;20461;-66
2021/12/10 10:47:38;;;;;;;2.03;1.17;;;7.40;99.90;;;;;;5026366;28;20104;-66
2021/12/10 10:50:35;;;;;;;3.83;1.77;;;7.60;99.90;;;;;;5027829;28;20741;-66
2021/12/10 10:53:08;;;;;;;1.33;1.00;;;7.70;99.90;;;;;;5014640;28;20057;-66
2021/12/10 10:55:41;;;;;;;0.88;0.80;;;7.60;99.90;;;;;;5020355;28;20037;-66
2021/12/10 10:58:13;;;;;;;1.58;1.08;;;7.50;99.90;;;;;;5027855;28;20032;-66
2021/12/10 11:00:58;;;;;;;2.42;0.95;;;6.90;99.90;;;;;;5026385;28;20029;-66
2021/12/10 11:03:36;;;;;;;0.73;0.73;;;6.70;99.90;;;;;;5041062;28;20033;-66
2021/12/10 11:06:08;;;;;;;2.22;0.88;;;6.60;99.90;;;;;;5021554;28;20021;-66
2021/12/10 11:08:40;;;;;;;6.25;1.33;;;6.70;99.90;;;;;;5026755;28;20067;-66
2021/12/10 11:11:16;;;;;;;1.15;0.90;;;6.90;99.90;;;;;;5027153;28;20114;-66
2021/12/10 11:14:03;;;;;;;9.25;1.80;;;7.10;99.90;;;;;;5025200;28;20021;-66
2021/12/10 11:16:30;;;;;;;1.80;0.85;;;7.20;99.90;;;;;;5024987;28;20145;-66
2021/12/10 11:19:10;;;;;;;0.95;0.80;;;6.90;99.90;;;;;;5023475;28;20192;-66
2021/12/10 11:21:59;;;;;;;1.33;0.85;;;7.30;99.90;;;;;;5025771;28;20033;-66
2021/12/10 11:24:37;;;;;;;1.90;0.80;;;7.10;99.90;;;;;;5023000;28;20049;-66
2021/12/10 11:27:09;;;;;;;5.15;1.27;;;7.10;99.90;;;;;;5024113;28;20244;-66
2021/12/10 11:30:19;;;;;;;2.33;0.95;;;7.30;99.90;;;;;;5025118;28;20064;-66
2021/12/10 11:32:54;;;;;;;1.40;1.10;;;7.60;99.90;;;;;;4989361;28;20061;-66
2021/12/10 11:35:24;;;;;;;1.92;1.10;;;7.30;99.90;;;;;;4987297;28;20104;-66
2021/12/10 11:38:34;;;;;;;1.45;0.90;;;7.40;99.90;;;;;;4998893;28;20073;-66
2021/12/10 11:41:05;;;;;;;1.80;0.90;;;7.30;99.90;;;;;;4980656;28;20031;-66
2021/12/10 11:43:57;;;;;;;0.90;0.85;;;7.50;99.90;;;;;;4993818;28;20033;-66
2021/12/10 11:47:25;;;;;;;12.13;1.20;;;7.60;99.90;;;;;;4993044;28;20074;-65
2021/12/10 11:49:40;;;;;;;2.55;1.00;;;7.40;99.90;;;;;;4981642;28;20043;-65
2021/12/10 11:52:14;;;;;;;4.15;1.40;;;7.30;99.90;;;;;;4990050;28;20029;-65
2021/12/10 11:54:50;;;;;;;1.88;0.93;;;7.10;99.90;;;;;;4981873;28;20046;-65
2021/12/10 11:57:27;;;;;;;1.20;0.90;;;7.30;99.90;;;;;;4985780;28;20038;-65
2021/12/10 11:59:57;;;;;;;2.63;0.93;;;7.30;99.90;;;;;;4985200;28;20066;-65
2021/12/10 12:02:28;;;;;;;2.58;0.93;;;7.20;99.90;;;;;;4990857;28;20117;-66
2021/12/10 12:05:10;;;;;;;2.92;1.30;;;7.50;99.90;;;;;;5023287;28;20052;-66
2021/12/10 12:07:40;;;;;;;0.93;0.73;;;7.40;99.90;;;;;;5022280;28;20065;-66
2021/12/10 12:10:22;;;;;;;1.50;0.93;;;7.60;99.90;;;;;;5021310;28;20049;-66
2021/12/10 12:12:50;;;;;;;4.07;1.40;;;7.70;99.90;;;;;;5023415;28;20274;-66
2021/12/10 12:15:44;;;;;;;2.30;1.23;;;8.40;99.90;;;;;;5022214;28;20481;-66
2021/12/10 12:18:16;;;;;;;1.30;0.77;;;8.90;99.90;;;;;;5021211;28;20032;-66
2021/12/10 12:20:48;;;;;;;0.73;0.70;;;9.20;99.90;;;;;;5022791;28;20025;-66
2021/12/10 12:26:11;;;;;;;2.00;1.00;;;9.60;99.90;;;;;;5025732;28;20467;-66
2021/12/10 12:28:45;;;;;;;1.95;0.93;;;8.50;99.90;;;;;;5028668;28;20037;-66
2021/12/10 12:31:13;;;;;;;4.78;0.85;;;8.60;99.90;;;;;;5025252;28;20042;-66
2021/12/10 12:34:34;;;;;;;4.55;0.80;;;8.70;99.90;;;;;;5024379;28;20144;-66
2021/12/10 12:37:07;;;;;;;1.98;0.95;;;8.40;99.90;;;;;;5001525;28;20038;-66
2021/12/10 12:39:49;;;;;;;1.75;0.90;;;7.90;99.90;;;;;;5006358;28;20084;-65
2021/12/10 12:42:23;;;;;;;0.77;0.70;;;8.00;99.90;;;;;;5005962;28;20030;-65
2021/12/10 12:45:03;;;;;;;2.97;1.27;;;7.90;99.90;;;;;;4991797;28;20022;-65
2021/12/10 12:47:36;;;;;;;0.60;0.60;;;7.70;99.90;;;;;;5011448;28;20034;-65
2021/12/10 12:50:07;;;;;;;3.17;1.08;;;7.60;99.90;;;;;;5005663;28;20042;-66
2021/12/10 12:52:40;;;;;;;0.65;0.65;;;7.40;99.90;;;;;;5009617;28;20509;-65
2021/12/10 12:55:12;;;;;;;2.15;1.17;;;7.40;99.90;;;;;;5012121;28;20137;-66
2021/12/10 12:58:13;;;;;;;5.72;1.63;;;7.30;99.90;;;;;;5009188;28;20117;-66
2021/12/10 13:00:42;;;;;;;;;;;7.60;99.90;;;;;;5008258;28;20120;-66
2021/12/10 13:03:26;;;;;;;2.53;1.10;;;7.60;99.90;;;;;;4990477;28;20337;-66
2021/12/10 13:05:57;;;;;;;2.67;1.05;;;7.60;99.90;;;;;;5006725;28;20066;-66
2021/12/10 13:08:32;;;;;;;1.88;1.00;;;7.70;99.90;;;;;;5028635;28;20450;-66
2021/12/10 13:11:31;;;;;;;1.40;1.05;;;7.70;99.90;;;;;;5027638;28;20441;-66
2021/12/10 13:14:11;;;;;;;3.75;0.80;;;7.40;99.90;;;;;;5027219;28;20025;-66
2021/12/10 13:16:45;;;;;;;1.85;1.05;;;7.20;99.90;;;;;;5022795;28;20025;-66
2021/12/10 13:19:18;;;;;;;0.88;0.70;;;7.20;99.90;;;;;;5028593;28;20033;-66
2021/12/10 13:21:46;;;;;;;1.20;0.88;;;7.10;99.90;;;;;;5024167;28;20089;-66
2021/12/10 13:24:13;;;;;;;1.95;0.95;;;7.00;99.90;;;;;;5029833;28;20033;-66